Terminal Aerodrome Forecast
Issued by NWS

Home | Current Version | Previous Version | Text Only | Print | Product List | Glossary On
Versions: 1 2 3 4 5 6 7 8 9 10 11 12 13 14 15
000
FTUS45 KTFX 241900 AAA
TAFBZN
TAF AMD
KBZN 241941Z 2420/2518 27011KT P6SM VCSH OVC080
      TEMPO 2420/2423 -RA SCT050 OVC070
     FM250000 20010KT P6SM SCT080
     FM250400 15006KT P6SM SKC=

USA.gov is the U.S. government's official web portal to all federal, state and local government web resources and services.